Aleppo, Pennsylvania
Current Conditions -  °F | °C
As of 2:15 PM on Saturday 25 Oct 2014 (Local Time) from KAFJ Reporting Station
Scattered Clouds Scattered Clouds  
Wind Chill: 18°   Ceiling: Unl
Heat Index: 18°   Visibility: 10mi
Dew Point:   Wind: 18mph
Humidity: 56%   Direction: 230°SW
Pressure: 29.86"   Gusts: 26mph
Location:  39.82°N, 80.45°W
Report Text: KAFJ 251815Z AUTO 23016G23KT 10SM SCT055 18/09 A2986 RMK AO1
Loading
Personal Weather Stations






























Interactive Weather Map
Tropical Storm Tracking
New forecast layout! Learn more

10-Day Weather Forecast

Advertisements
Track Severe Weather on mobile